sensor_id;sensor_type;location;lat;lon;timestamp;temperature;humidity
21167;DHT22;10741;52.272;9.580;2023-03-23T00:00:09;12.40;99.90
21167;DHT22;10741;52.272;9.580;2023-03-23T00:02:35;12.20;99.90
21167;DHT22;10741;52.272;9.580;2023-03-23T00:05:05;12.00;99.90
21167;DHT22;10741;52.272;9.580;2023-03-23T00:07:32;11.80;99.90
21167;DHT22;10741;52.272;9.580;2023-03-23T00:09:58;11.60;99.90
21167;DHT22;10741;52.272;9.580;2023-03-23T00:12:29;11.30;99.90
21167;DHT22;10741;52.272;9.580;2023-03-23T00:15:06;11.10;99.90
21167;DHT22;10741;52.272;9.580;2023-03-23T00:17:34;10.90;99.90
21167;DHT22;10741;52.272;9.580;2023-03-23T00:20:00;10.90;99.90
21167;DHT22;10741;52.272;9.580;2023-03-23T00:22:28;10.80;99.90
21167;DHT22;10741;52.272;9.580;2023-03-23T00:24:54;10.90;99.90
21167;DHT22;10741;52.272;9.580;2023-03-23T00:27:22;10.80;99.90
21167;DHT22;10741;52.272;9.580;2023-03-23T00:29:49;10.80;99.90
21167;DHT22;10741;52.272;9.580;2023-03-23T00:32:20;10.80;99.90
21167;DHT22;10741;52.272;9.580;2023-03-23T00:34:46;10.80;99.90
21167;DHT22;10741;52.272;9.580;2023-03-23T00:37:14;10.80;99.90
21167;DHT22;10741;52.272;9.580;2023-03-23T00:39:42;11.00;99.90
21167;DHT22;10741;52.272;9.580;2023-03-23T00:42:10;11.10;99.90
21167;DHT22;10741;52.272;9.580;2023-03-23T00:44:38;11.20;99.90
21167;DHT22;10741;52.272;9.580;2023-03-23T00:47:05;11.40;99.90
21167;DHT22;10741;52.272;9.580;2023-03-23T00:49:34;11.40;99.90
21167;DHT22;10741;52.272;9.580;2023-03-23T00:52:01;11.60;99.90
21167;DHT22;10741;52.272;9.580;2023-03-23T00:54:27;11.60;99.90
21167;DHT22;10741;52.272;9.580;2023-03-23T00:56:53;11.60;99.90
21167;DHT22;10741;52.272;9.580;2023-03-23T00:59:20;11.60;99.90
21167;DHT22;10741;52.272;9.580;2023-03-23T01:01:46;11.60;99.90
21167;DHT22;10741;52.272;9.580;2023-03-23T01:04:12;11.60;99.90
21167;DHT22;10741;52.272;9.580;2023-03-23T01:06:39;11.60;99.90
21167;DHT22;10741;52.272;9.580;2023-03-23T01:09:11;11.60;99.90
21167;DHT22;10741;52.272;9.580;2023-03-23T01:11:40;11.60;99.90
21167;DHT22;10741;52.272;9.580;2023-03-23T01:14:06;11.60;99.90
21167;DHT22;10741;52.272;9.580;2023-03-23T01:16:32;11.60;99.90
21167;DHT22;10741;52.272;9.580;2023-03-23T01:18:57;11.50;99.90
21167;DHT22;10741;52.272;9.580;2023-03-23T01:21:23;11.50;99.90
21167;DHT22;10741;52.272;9.580;2023-03-23T01:23:50;11.50;99.90
21167;DHT22;10741;52.272;9.580;2023-03-23T01:26:20;11.50;99.90
21167;DHT22;10741;52.272;9.580;2023-03-23T01:28:46;11.50;99.90
21167;DHT22;10741;52.272;9.580;2023-03-23T01:31:18;11.50;99.90
21167;DHT22;10741;52.272;9.580;2023-03-23T01:33:45;11.60;99.90
21167;DHT22;10741;52.272;9.580;2023-03-23T01:36:16;11.60;99.90
21167;DHT22;10741;52.272;9.580;2023-03-23T01:38:44;11.60;99.90
21167;DHT22;10741;52.272;9.580;2023-03-23T01:41:11;11.50;99.90
21167;DHT22;10741;52.272;9.580;2023-03-23T01:44:06;11.50;99.90
21167;DHT22;10741;52.272;9.580;2023-03-23T01:46:35;11.50;99.90
21167;DHT22;10741;52.272;9.580;2023-03-23T01:51:41;11.60;99.90
21167;DHT22;10741;52.272;9.580;2023-03-23T01:54:10;11.50;99.90
21167;DHT22;10741;52.272;9.580;2023-03-23T01:56:48;11.50;99.90
21167;DHT22;10741;52.272;9.580;2023-03-23T01:59:15;11.40;99.90
21167;DHT22;10741;52.272;9.580;2023-03-23T02:01:41;11.40;99.90
21167;DHT22;10741;52.272;9.580;2023-03-23T02:04:12;11.50;99.90
21167;DHT22;10741;52.272;9.580;2023-03-23T02:06:39;11.50;99.90
21167;DHT22;10741;52.272;9.580;2023-03-23T02:09:05;11.50;99.90
21167;DHT22;10741;52.272;9.580;2023-03-23T02:11:32;11.50;99.90
21167;DHT22;10741;52.272;9.580;2023-03-23T02:13:58;11.50;99.90
21167;DHT22;10741;52.272;9.580;2023-03-23T02:35:35;11.50;99.90
21167;DHT22;10741;52.272;9.580;2023-03-23T02:38:26;11.50;99.90
21167;DHT22;10741;52.272;9.580;2023-03-23T02:40:54;11.50;99.90
21167;DHT22;10741;52.272;9.580;2023-03-23T02:43:24;11.40;99.90
21167;DHT22;10741;52.272;9.580;2023-03-23T02:45:52;11.40;99.90
21167;DHT22;10741;52.272;9.580;2023-03-23T02:48:20;11.40;99.90
21167;DHT22;10741;52.272;9.580;2023-03-23T02:50:51;11.40;99.90
21167;DHT22;10741;52.272;9.580;2023-03-23T02:53:21;11.50;99.90
21167;DHT22;10741;52.272;9.580;2023-03-23T02:55:48;11.60;99.90
21167;DHT22;10741;52.272;9.580;2023-03-23T02:58:14;11.60;99.90
21167;DHT22;10741;52.272;9.580;2023-03-23T03:00:41;11.60;99.90
21167;DHT22;10741;52.272;9.580;2023-03-23T03:03:12;11.60;99.90
21167;DHT22;10741;52.272;9.580;2023-03-23T03:09:13;11.60;99.90
21167;DHT22;10741;52.272;9.580;2023-03-23T03:11:49;11.50;99.90
21167;DHT22;10741;52.272;9.580;2023-03-23T03:14:22;11.50;99.90
21167;DHT22;10741;52.272;9.580;2023-03-23T03:19:30;11.60;99.90
21167;DHT22;10741;52.272;9.580;2023-03-23T03:21:58;11.70;99.90
21167;DHT22;10741;52.272;9.580;2023-03-23T03:24:28;11.60;99.90
21167;DHT22;10741;52.272;9.580;2023-03-23T03:26:57;11.40;99.90
21167;DHT22;10741;52.272;9.580;2023-03-23T03:29:28;11.40;99.90
21167;DHT22;10741;52.272;9.580;2023-03-23T03:31:57;11.20;99.90
21167;DHT22;10741;52.272;9.580;2023-03-23T03:34:24;11.10;99.90
21167;DHT22;10741;52.272;9.580;2023-03-23T03:36:52;11.00;99.90
21167;DHT22;10741;52.272;9.580;2023-03-23T03:39:19;11.00;99.90
21167;DHT22;10741;52.272;9.580;2023-03-23T03:41:47;10.90;99.90
21167;DHT22;10741;52.272;9.580;2023-03-23T03:44:13;11.00;99.90
21167;DHT22;10741;52.272;9.580;2023-03-23T03:46:39;11.10;99.90
21167;DHT22;10741;52.272;9.580;2023-03-23T03:49:09;11.20;99.90
21167;DHT22;10741;52.272;9.580;2023-03-23T03:51:39;11.30;99.90
21167;DHT22;10741;52.272;9.580;2023-03-23T03:54:05;11.30;99.90
21167;DHT22;10741;52.272;9.580;2023-03-23T03:56:30;11.40;99.90
21167;DHT22;10741;52.272;9.580;2023-03-23T03:59:16;11.40;99.90
21167;DHT22;10741;52.272;9.580;2023-03-23T04:01:42;11.40;99.90
21167;DHT22;10741;52.272;9.580;2023-03-23T04:04:08;11.50;99.90
21167;DHT22;10741;52.272;9.580;2023-03-23T04:06:40;11.60;99.90
21167;DHT22;10741;52.272;9.580;2023-03-23T04:09:06;11.50;99.90
21167;DHT22;10741;52.272;9.580;2023-03-23T04:11:32;11.60;99.90
21167;DHT22;10741;52.272;9.580;2023-03-23T04:13:58;11.60;99.90
21167;DHT22;10741;52.272;9.580;2023-03-23T04:16:24;11.50;99.90
21167;DHT22;10741;52.272;9.580;2023-03-23T04:18:51;11.50;99.90
21167;DHT22;10741;52.272;9.580;2023-03-23T04:21:17;11.60;99.90
21167;DHT22;10741;52.272;9.580;2023-03-23T04:23:43;11.60;99.90
21167;DHT22;10741;52.272;9.580;2023-03-23T04:26:09;11.60;99.90
21167;DHT22;10741;52.272;9.580;2023-03-23T04:28:39;11.60;99.90
21167;DHT22;10741;52.272;9.580;2023-03-23T04:31:06;11.60;99.90
21167;DHT22;10741;52.272;9.580;2023-03-23T04:33:34;11.50;99.90
21167;DHT22;10741;52.272;9.580;2023-03-23T04:36:01;11.60;99.90
21167;DHT22;10741;52.272;9.580;2023-03-23T04:38:28;11.60;99.90
21167;DHT22;10741;52.272;9.580;2023-03-23T04:40:55;11.60;99.90
21167;DHT22;10741;52.272;9.580;2023-03-23T04:43:23;11.60;99.90
21167;DHT22;10741;52.272;9.580;2023-03-23T04:45:54;11.70;99.90
21167;DHT22;10741;52.272;9.580;2023-03-23T04:48:30;11.60;99.90
21167;DHT22;10741;52.272;9.580;2023-03-23T04:50:58;11.60;99.90
21167;DHT22;10741;52.272;9.580;2023-03-23T04:53:26;11.60;99.90
21167;DHT22;10741;52.272;9.580;2023-03-23T04:55:51;11.60;99.90
21167;DHT22;10741;52.272;9.580;2023-03-23T04:58:17;11.70;99.90
21167;DHT22;10741;52.272;9.580;2023-03-23T05:00:43;11.70;99.90
21167;DHT22;10741;52.272;9.580;2023-03-23T05:03:18;11.70;99.90
21167;DHT22;10741;52.272;9.580;2023-03-23T05:05:45;11.70;99.90
21167;DHT22;10741;52.272;9.580;2023-03-23T05:08:21;11.70;99.90
21167;DHT22;10741;52.272;9.580;2023-03-23T05:10:55;11.70;99.90
21167;DHT22;10741;52.272;9.580;2023-03-23T05:13:22;11.70;99.90
21167;DHT22;10741;52.272;9.580;2023-03-23T05:15:48;11.70;99.90
21167;DHT22;10741;52.272;9.580;2023-03-23T05:18:14;11.60;99.90
21167;DHT22;10741;52.272;9.580;2023-03-23T05:20:40;11.60;99.90
21167;DHT22;10741;52.272;9.580;2023-03-23T05:23:08;11.60;99.90
21167;DHT22;10741;52.272;9.580;2023-03-23T05:25:35;11.50;99.90
21167;DHT22;10741;52.272;9.580;2023-03-23T05:28:11;11.40;99.90
21167;DHT22;10741;52.272;9.580;2023-03-23T05:30:38;11.50;99.90
21167;DHT22;10741;52.272;9.580;2023-03-23T05:33:04;11.40;99.90
21167;DHT22;10741;52.272;9.580;2023-03-23T05:35:30;11.40;99.90
21167;DHT22;10741;52.272;9.580;2023-03-23T05:37:56;11.40;99.90
21167;DHT22;10741;52.272;9.580;2023-03-23T05:40:26;11.40;99.90
21167;DHT22;10741;52.272;9.580;2023-03-23T05:42:53;11.40;99.90
21167;DHT22;10741;52.272;9.580;2023-03-23T05:45:21;11.40;99.90
21167;DHT22;10741;52.272;9.580;2023-03-23T05:47:48;11.40;99.90
21167;DHT22;10741;52.272;9.580;2023-03-23T05:50:14;11.40;99.90
21167;DHT22;10741;52.272;9.580;2023-03-23T05:52:39;11.50;99.90
21167;DHT22;10741;52.272;9.580;2023-03-23T05:55:06;11.50;99.90
21167;DHT22;10741;52.272;9.580;2023-03-23T05:57:33;11.50;99.90
21167;DHT22;10741;52.272;9.580;2023-03-23T05:59:59;11.60;99.90
21167;DHT22;10741;52.272;9.580;2023-03-23T06:02:30;11.60;99.90
21167;DHT22;10741;52.272;9.580;2023-03-23T06:04:56;11.60;99.90
21167;DHT22;10741;52.272;9.580;2023-03-23T06:07:24;11.60;99.90
21167;DHT22;10741;52.272;9.580;2023-03-23T06:09:50;11.60;99.90
21167;DHT22;10741;52.272;9.580;2023-03-23T06:12:16;11.60;99.90
21167;DHT22;10741;52.272;9.580;2023-03-23T06:14:46;11.70;99.90
21167;DHT22;10741;52.272;9.580;2023-03-23T06:17:12;11.70;99.90
21167;DHT22;10741;52.272;9.580;2023-03-23T06:19:39;11.80;99.90
21167;DHT22;10741;52.272;9.580;2023-03-23T06:22:04;11.90;99.90
21167;DHT22;10741;52.272;9.580;2023-03-23T06:24:30;11.80;99.90
21167;DHT22;10741;52.272;9.580;2023-03-23T06:26:57;11.80;99.90
21167;DHT22;10741;52.272;9.580;2023-03-23T06:29:24;11.80;99.90
21167;DHT22;10741;52.272;9.580;2023-03-23T06:31:56;11.80;99.90
21167;DHT22;10741;52.272;9.580;2023-03-23T06:34:23;11.80;99.90
21167;DHT22;10741;52.272;9.580;2023-03-23T06:36:49;11.90;99.90
21167;DHT22;10741;52.272;9.580;2023-03-23T06:39:14;11.90;99.90
21167;DHT22;10741;52.272;9.580;2023-03-23T06:41:40;12.00;99.90
21167;DHT22;10741;52.272;9.580;2023-03-23T06:44:06;12.10;99.90
21167;DHT22;10741;52.272;9.580;2023-03-23T06:46:34;12.10;99.90
21167;DHT22;10741;52.272;9.580;2023-03-23T06:49:00;12.20;99.90
21167;DHT22;10741;52.272;9.580;2023-03-23T06:51:26;12.20;99.90
21167;DHT22;10741;52.272;9.580;2023-03-23T06:53:51;12.30;99.90
21167;DHT22;10741;52.272;9.580;2023-03-23T06:56:17;12.20;99.90
21167;DHT22;10741;52.272;9.580;2023-03-23T06:58:43;12.20;99.90
21167;DHT22;10741;52.272;9.580;2023-03-23T07:01:10;12.20;99.90
21167;DHT22;10741;52.272;9.580;2023-03-23T07:03:36;12.20;99.90
21167;DHT22;10741;52.272;9.580;2023-03-23T07:06:03;12.10;99.90
21167;DHT22;10741;52.272;9.580;2023-03-23T07:08:29;12.20;99.90
21167;DHT22;10741;52.272;9.580;2023-03-23T07:10:56;12.20;99.90
21167;DHT22;10741;52.272;9.580;2023-03-23T07:13:22;12.20;99.90
21167;DHT22;10741;52.272;9.580;2023-03-23T07:15:48;12.30;99.90
21167;DHT22;10741;52.272;9.580;2023-03-23T07:18:15;12.50;99.90
21167;DHT22;10741;52.272;9.580;2023-03-23T07:20:41;12.50;99.90
21167;DHT22;10741;52.272;9.580;2023-03-23T07:23:06;12.70;99.90
21167;DHT22;10741;52.272;9.580;2023-03-23T07:25:34;12.80;99.90
21167;DHT22;10741;52.272;9.580;2023-03-23T07:28:01;12.90;99.90
21167;DHT22;10741;52.272;9.580;2023-03-23T07:30:28;13.00;99.90
21167;DHT22;10741;52.272;9.580;2023-03-23T07:32:57;13.00;99.90
21167;DHT22;10741;52.272;9.580;2023-03-23T07:35:24;13.20;99.90
21167;DHT22;10741;52.272;9.580;2023-03-23T07:37:51;13.20;99.90
21167;DHT22;10741;52.272;9.580;2023-03-23T07:40:18;13.40;99.90
21167;DHT22;10741;52.272;9.580;2023-03-23T07:42:52;13.60;99.90
21167;DHT22;10741;52.272;9.580;2023-03-23T07:45:18;13.90;99.90
21167;DHT22;10741;52.272;9.580;2023-03-23T07:47:44;14.00;99.90
21167;DHT22;10741;52.272;9.580;2023-03-23T07:50:10;14.30;99.90
21167;DHT22;10741;52.272;9.580;2023-03-23T07:52:38;14.30;99.90
21167;DHT22;10741;52.272;9.580;2023-03-23T07:55:05;14.40;99.90
21167;DHT22;10741;52.272;9.580;2023-03-23T07:57:31;14.60;99.90
21167;DHT22;10741;52.272;9.580;2023-03-23T07:59:58;14.70;99.90
21167;DHT22;10741;52.272;9.580;2023-03-23T08:02:25;14.90;99.90
21167;DHT22;10741;52.272;9.580;2023-03-23T08:04:52;15.00;99.90
21167;DHT22;10741;52.272;9.580;2023-03-23T08:07:19;14.50;99.90
21167;DHT22;10741;52.272;9.580;2023-03-23T08:09:46;14.40;99.90
21167;DHT22;10741;52.272;9.580;2023-03-23T08:12:13;14.30;99.90
21167;DHT22;10741;52.272;9.580;2023-03-23T08:14:39;14.20;99.90
21167;DHT22;10741;52.272;9.580;2023-03-23T08:17:10;14.10;99.90
21167;DHT22;10741;52.272;9.580;2023-03-23T08:19:38;14.20;99.90
21167;DHT22;10741;52.272;9.580;2023-03-23T08:22:04;14.30;99.90
21167;DHT22;10741;52.272;9.580;2023-03-23T08:24:31;14.20;99.90
21167;DHT22;10741;52.272;9.580;2023-03-23T08:27:07;14.20;99.90
21167;DHT22;10741;52.272;9.580;2023-03-23T08:29:33;14.20;99.90
21167;DHT22;10741;52.272;9.580;2023-03-23T08:31:59;14.10;99.90
21167;DHT22;10741;52.272;9.580;2023-03-23T08:34:28;14.10;99.90
21167;DHT22;10741;52.272;9.580;2023-03-23T08:36:54;14.00;99.90
21167;DHT22;10741;52.272;9.580;2023-03-23T08:39:20;14.00;99.90
21167;DHT22;10741;52.272;9.580;2023-03-23T08:41:48;14.00;99.90
21167;DHT22;10741;52.272;9.580;2023-03-23T08:44:17;14.10;99.90
21167;DHT22;10741;52.272;9.580;2023-03-23T08:46:43;14.10;99.90
21167;DHT22;10741;52.272;9.580;2023-03-23T08:49:08;14.00;99.90
21167;DHT22;10741;52.272;9.580;2023-03-23T08:51:34;14.10;99.90
21167;DHT22;10741;52.272;9.580;2023-03-23T08:54:01;15.10;99.90
21167;DHT22;10741;52.272;9.580;2023-03-23T08:56:27;14.10;99.90
21167;DHT22;10741;52.272;9.580;2023-03-23T08:58:53;14.10;99.90
21167;DHT22;10741;52.272;9.580;2023-03-23T09:01:19;14.10;99.90
21167;DHT22;10741;52.272;9.580;2023-03-23T09:03:45;14.10;99.90
21167;DHT22;10741;52.272;9.580;2023-03-23T09:06:11;14.00;99.90
21167;DHT22;10741;52.272;9.580;2023-03-23T09:08:38;14.00;99.90
21167;DHT22;10741;52.272;9.580;2023-03-23T09:11:09;14.00;99.90
21167;DHT22;10741;52.272;9.580;2023-03-23T09:13:36;14.00;99.90
21167;DHT22;10741;52.272;9.580;2023-03-23T09:16:03;14.00;99.90
21167;DHT22;10741;52.272;9.580;2023-03-23T09:18:30;14.00;99.90
21167;DHT22;10741;52.272;9.580;2023-03-23T09:20:58;14.00;99.90
21167;DHT22;10741;52.272;9.580;2023-03-23T09:23:25;14.10;99.90
21167;DHT22;10741;52.272;9.580;2023-03-23T09:25:51;14.10;99.90
21167;DHT22;10741;52.272;9.580;2023-03-23T09:28:18;14.10;99.90
21167;DHT22;10741;52.272;9.580;2023-03-23T09:30:44;14.20;99.90
21167;DHT22;10741;52.272;9.580;2023-03-23T09:33:11;14.20;99.90
21167;DHT22;10741;52.272;9.580;2023-03-23T09:35:37;14.20;99.90
21167;DHT22;10741;52.272;9.580;2023-03-23T09:38:05;14.20;99.90
21167;DHT22;10741;52.272;9.580;2023-03-23T09:48:58;14.20;99.90
21167;DHT22;10741;52.272;9.580;2023-03-23T09:51:29;14.20;99.90
21167;DHT22;10741;52.272;9.580;2023-03-23T09:56:39;14.20;99.90
21167;DHT22;10741;52.272;9.580;2023-03-23T10:01:55;14.10;99.90
21167;DHT22;10741;52.272;9.580;2023-03-23T10:04:44;14.10;99.90
21167;DHT22;10741;52.272;9.580;2023-03-23T10:07:22;14.00;99.90
21167;DHT22;10741;52.272;9.580;2023-03-23T10:09:57;14.00;99.90
21167;DHT22;10741;52.272;9.580;2023-03-23T10:15:19;14.20;99.90
21167;DHT22;10741;52.272;9.580;2023-03-23T10:18:16;14.30;99.90
21167;DHT22;10741;52.272;9.580;2023-03-23T10:20:58;14.20;99.90
21167;DHT22;10741;52.272;9.580;2023-03-23T10:23:41;14.20;99.90
21167;DHT22;10741;52.272;9.580;2023-03-23T10:28:52;14.30;99.90
21167;DHT22;10741;52.272;9.580;2023-03-23T10:31:24;14.30;99.90
21167;DHT22;10741;52.272;9.580;2023-03-23T10:33:54;14.30;99.90
21167;DHT22;10741;52.272;9.580;2023-03-23T10:36:34;14.30;99.90
21167;DHT22;10741;52.272;9.580;2023-03-23T10:39:13;14.40;99.90
21167;DHT22;10741;52.272;9.580;2023-03-23T10:41:42;14.40;99.90
21167;DHT22;10741;52.272;9.580;2023-03-23T10:44:20;14.50;99.90
21167;DHT22;10741;52.272;9.580;2023-03-23T10:46:57;14.60;99.90
21167;DHT22;10741;52.272;9.580;2023-03-23T10:54:46;15.40;99.90
21167;DHT22;10741;52.272;9.580;2023-03-23T10:57:26;15.60;99.90
21167;DHT22;10741;52.272;9.580;2023-03-23T10:59:59;15.80;99.90
21167;DHT22;10741;52.272;9.580;2023-03-23T11:02:27;15.70;99.90
21167;DHT22;10741;52.272;9.580;2023-03-23T11:05:00;15.70;99.90
21167;DHT22;10741;52.272;9.580;2023-03-23T11:07:34;15.50;99.90
21167;DHT22;10741;52.272;9.580;2023-03-23T11:10:37;15.30;99.90
21167;DHT22;10741;52.272;9.580;2023-03-23T11:13:03;15.30;99.90
21167;DHT22;10741;52.272;9.580;2023-03-23T11:15:40;15.40;99.90
21167;DHT22;10741;52.272;9.580;2023-03-23T11:18:11;15.50;99.90
21167;DHT22;10741;52.272;9.580;2023-03-23T11:20:43;15.60;99.90
21167;DHT22;10741;52.272;9.580;2023-03-23T11:23:24;15.80;99.90
21167;DHT22;10741;52.272;9.580;2023-03-23T11:26:12;15.90;99.90
21167;DHT22;10741;52.272;9.580;2023-03-23T11:28:44;15.80;99.90
21167;DHT22;10741;52.272;9.580;2023-03-23T11:31:11;15.90;99.90
21167;DHT22;10741;52.272;9.580;2023-03-23T11:33:52;15.80;99.90
21167;DHT22;10741;52.272;9.580;2023-03-23T11:36:19;15.60;99.90
21167;DHT22;10741;52.272;9.580;2023-03-23T11:38:46;15.60;99.90
21167;DHT22;10741;52.272;9.580;2023-03-23T11:41:16;15.70;99.90
21167;DHT22;10741;52.272;9.580;2023-03-23T11:43:46;15.80;99.90
21167;DHT22;10741;52.272;9.580;2023-03-23T11:46:41;15.80;99.90
21167;DHT22;10741;52.272;9.580;2023-03-23T11:49:24;15.70;99.90
21167;DHT22;10741;52.272;9.580;2023-03-23T11:52:11;15.90;99.90
21167;DHT22;10741;52.272;9.580;2023-03-23T11:54:46;16.00;99.90
21167;DHT22;10741;52.272;9.580;2023-03-23T11:57:13;15.90;99.90
21167;DHT22;10741;52.272;9.580;2023-03-23T11:59:41;15.70;99.90
21167;DHT22;10741;52.272;9.580;2023-03-23T12:07:48;14.70;99.90
21167;DHT22;10741;52.272;9.580;2023-03-23T12:10:30;13.20;99.90
21167;DHT22;10741;52.272;9.580;2023-03-23T12:26:22;11.70;99.90
21167;DHT22;10741;52.272;9.580;2023-03-23T12:37:28;11.90;99.90
21167;DHT22;10741;52.272;9.580;2023-03-23T12:42:43;12.20;99.90
21167;DHT22;10741;52.272;9.580;2023-03-23T12:48:07;12.20;99.90
21167;DHT22;10741;52.272;9.580;2023-03-23T12:56:39;12.30;99.90
21167;DHT22;10741;52.272;9.580;2023-03-23T13:01:48;12.30;99.90
21167;DHT22;10741;52.272;9.580;2023-03-23T13:04:15;12.30;99.90
21167;DHT22;10741;52.272;9.580;2023-03-23T13:06:45;12.30;99.90
21167;DHT22;10741;52.272;9.580;2023-03-23T13:09:24;12.20;99.90
21167;DHT22;10741;52.272;9.580;2023-03-23T13:11:54;12.10;99.90
21167;DHT22;10741;52.272;9.580;2023-03-23T13:20:55;12.30;99.90
21167;DHT22;10741;52.272;9.580;2023-03-23T13:27:58;12.10;99.90
21167;DHT22;10741;52.272;9.580;2023-03-23T13:30:24;12.20;99.90
21167;DHT22;10741;52.272;9.580;2023-03-23T13:32:51;12.20;99.90
21167;DHT22;10741;52.272;9.580;2023-03-23T13:35:19;12.10;99.90
21167;DHT22;10741;52.272;9.580;2023-03-23T13:37:50;12.10;99.90
21167;DHT22;10741;52.272;9.580;2023-03-23T13:40:28;12.20;99.90
21167;DHT22;10741;52.272;9.580;2023-03-23T13:42:59;12.30;99.90
21167;DHT22;10741;52.272;9.580;2023-03-23T13:48:18;12.40;99.90
21167;DHT22;10741;52.272;9.580;2023-03-23T13:50:58;12.50;99.90
21167;DHT22;10741;52.272;9.580;2023-03-23T13:53:27;12.40;99.90
21167;DHT22;10741;52.272;9.580;2023-03-23T13:56:19;12.40;99.90
21167;DHT22;10741;52.272;9.580;2023-03-23T13:58:50;12.40;99.90
21167;DHT22;10741;52.272;9.580;2023-03-23T14:01:33;12.30;99.90
21167;DHT22;10741;52.272;9.580;2023-03-23T14:04:02;12.30;99.90
21167;DHT22;10741;52.272;9.580;2023-03-23T14:06:34;12.30;99.90
21167;DHT22;10741;52.272;9.580;2023-03-23T14:12:01;12.00;99.90
21167;DHT22;10741;52.272;9.580;2023-03-23T14:14:42;12.00;99.90
21167;DHT22;10741;52.272;9.580;2023-03-23T14:17:16;12.20;99.90
21167;DHT22;10741;52.272;9.580;2023-03-23T14:19:47;12.20;99.90
21167;DHT22;10741;52.272;9.580;2023-03-23T14:22:40;12.40;99.90
21167;DHT22;10741;52.272;9.580;2023-03-23T14:25:16;12.50;99.90
21167;DHT22;10741;52.272;9.580;2023-03-23T14:27:43;12.50;99.90
21167;DHT22;10741;52.272;9.580;2023-03-23T14:30:34;12.50;99.90
21167;DHT22;10741;52.272;9.580;2023-03-23T14:33:06;12.60;99.90
21167;DHT22;10741;52.272;9.580;2023-03-23T14:35:36;12.60;99.90
21167;DHT22;10741;52.272;9.580;2023-03-23T14:38:04;12.50;99.90
21167;DHT22;10741;52.272;9.580;2023-03-23T14:40:31;12.50;99.90
21167;DHT22;10741;52.272;9.580;2023-03-23T14:42:57;12.40;99.90
21167;DHT22;10741;52.272;9.580;2023-03-23T14:45:24;12.40;99.90
21167;DHT22;10741;52.272;9.580;2023-03-23T14:48:03;12.40;99.90
21167;DHT22;10741;52.272;9.580;2023-03-23T14:50:51;12.40;99.90
21167;DHT22;10741;52.272;9.580;2023-03-23T14:53:32;12.40;99.90
21167;DHT22;10741;52.272;9.580;2023-03-23T14:56:02;12.40;99.90
21167;DHT22;10741;52.272;9.580;2023-03-23T14:58:29;12.50;99.90
21167;DHT22;10741;52.272;9.580;2023-03-23T15:01:07;12.50;99.90
21167;DHT22;10741;52.272;9.580;2023-03-23T15:03:42;12.60;99.90
21167;DHT22;10741;52.272;9.580;2023-03-23T15:06:17;12.50;99.90
21167;DHT22;10741;52.272;9.580;2023-03-23T15:08:45;12.40;99.90
21167;DHT22;10741;52.272;9.580;2023-03-23T15:11:25;12.40;99.90
21167;DHT22;10741;52.272;9.580;2023-03-23T15:14:07;12.40;99.90
21167;DHT22;10741;52.272;9.580;2023-03-23T15:16:34;12.50;99.90
21167;DHT22;10741;52.272;9.580;2023-03-23T15:19:10;12.40;99.90
21167;DHT22;10741;52.272;9.580;2023-03-23T15:21:53;12.30;99.90
21167;DHT22;10741;52.272;9.580;2023-03-23T15:26:53;12.40;99.90
21167;DHT22;10741;52.272;9.580;2023-03-23T15:29:21;12.50;99.90
21167;DHT22;10741;52.272;9.580;2023-03-23T15:31:52;12.50;99.90
21167;DHT22;10741;52.272;9.580;2023-03-23T15:34:25;12.40;99.90
21167;DHT22;10741;52.272;9.580;2023-03-23T15:36:57;12.30;99.90
21167;DHT22;10741;52.272;9.580;2023-03-23T15:39:23;12.30;99.90
21167;DHT22;10741;52.272;9.580;2023-03-23T15:41:51;12.40;99.90
21167;DHT22;10741;52.272;9.580;2023-03-23T15:44:26;12.40;99.90
21167;DHT22;10741;52.272;9.580;2023-03-23T15:47:01;12.40;99.90
21167;DHT22;10741;52.272;9.580;2023-03-23T15:49:28;12.40;99.90
21167;DHT22;10741;52.272;9.580;2023-03-23T15:51:54;12.40;99.90
21167;DHT22;10741;52.272;9.580;2023-03-23T15:54:20;12.40;99.90
21167;DHT22;10741;52.272;9.580;2023-03-23T15:56:46;12.60;99.90
21167;DHT22;10741;52.272;9.580;2023-03-23T15:59:12;12.80;99.90
21167;DHT22;10741;52.272;9.580;2023-03-23T16:01:40;13.00;99.90
21167;DHT22;10741;52.272;9.580;2023-03-23T16:04:15;13.10;99.90
21167;DHT22;10741;52.272;9.580;2023-03-23T16:06:42;13.20;99.90
21167;DHT22;10741;52.272;9.580;2023-03-23T16:09:16;13.00;99.90
21167;DHT22;10741;52.272;9.580;2023-03-23T16:11:42;12.70;99.90
21167;DHT22;10741;52.272;9.580;2023-03-23T16:14:09;12.50;99.90
21167;DHT22;10741;52.272;9.580;2023-03-23T16:16:48;12.50;99.90
21167;DHT22;10741;52.272;9.580;2023-03-23T16:19:15;12.30;99.90
21167;DHT22;10741;52.272;9.580;2023-03-23T16:21:41;12.20;99.90
21167;DHT22;10741;52.272;9.580;2023-03-23T16:24:08;12.10;99.90
21167;DHT22;10741;52.272;9.580;2023-03-23T16:26:35;12.10;99.90
21167;DHT22;10741;52.272;9.580;2023-03-23T16:29:01;12.20;99.90
21167;DHT22;10741;52.272;9.580;2023-03-23T16:31:27;12.20;99.90
21167;DHT22;10741;52.272;9.580;2023-03-23T16:33:54;12.30;99.90
21167;DHT22;10741;52.272;9.580;2023-03-23T16:36:20;12.20;99.90
21167;DHT22;10741;52.272;9.580;2023-03-23T16:38:45;12.20;99.90
21167;DHT22;10741;52.272;9.580;2023-03-23T16:41:11;12.30;99.90
21167;DHT22;10741;52.272;9.580;2023-03-23T16:43:37;12.20;99.90
21167;DHT22;10741;52.272;9.580;2023-03-23T16:46:03;12.20;99.90
21167;DHT22;10741;52.272;9.580;2023-03-23T16:48:29;12.10;99.90
21167;DHT22;10741;52.272;9.580;2023-03-23T16:50:55;12.10;99.90
21167;DHT22;10741;52.272;9.580;2023-03-23T16:53:21;12.10;99.90
21167;DHT22;10741;52.272;9.580;2023-03-23T16:55:47;12.10;99.90
21167;DHT22;10741;52.272;9.580;2023-03-23T16:58:15;12.00;99.90
21167;DHT22;10741;52.272;9.580;2023-03-23T17:00:47;12.10;99.90
21167;DHT22;10741;52.272;9.580;2023-03-23T17:03:14;12.00;99.90
21167;DHT22;10741;52.272;9.580;2023-03-23T17:05:40;12.10;99.90
21167;DHT22;10741;52.272;9.580;2023-03-23T17:08:07;12.10;99.90
21167;DHT22;10741;52.272;9.580;2023-03-23T17:10:33;12.00;99.90
21167;DHT22;10741;52.272;9.580;2023-03-23T17:12:59;12.00;99.90
21167;DHT22;10741;52.272;9.580;2023-03-23T17:15:25;11.90;99.90
21167;DHT22;10741;52.272;9.580;2023-03-23T17:17:51;11.90;99.90
21167;DHT22;10741;52.272;9.580;2023-03-23T17:20:18;12.00;99.90
21167;DHT22;10741;52.272;9.580;2023-03-23T17:22:44;12.00;99.90
21167;DHT22;10741;52.272;9.580;2023-03-23T17:25:09;12.00;99.90
21167;DHT22;10741;52.272;9.580;2023-03-23T17:27:36;12.00;99.90
21167;DHT22;10741;52.272;9.580;2023-03-23T17:30:04;11.90;99.90
21167;DHT22;10741;52.272;9.580;2023-03-23T17:32:31;11.90;99.90
21167;DHT22;10741;52.272;9.580;2023-03-23T17:34:57;11.90;99.90
21167;DHT22;10741;52.272;9.580;2023-03-23T17:37:22;11.90;99.90